Time;durP1;ratioP1;P1;durP2;ratioP2;P2;SDS_P1;SDS_P2;PMS_P1;PMS_P2;Temp;Humidity;BMP_temperature;BMP_pressure;BME280_temperature;BME280_humidity;BME280_pressure;Samples;Min_cycle;Max_cycle;Signal;HPM_P1;HPM_P2
2023/06/08 00:01:15;;;;;;;9.70;4.53;;;;;;;14.69;90.90;101173.69;6099562;28;20028;-66
2023/06/08 00:04:12;;;;;;;11.35;4.47;;;;;;;14.56;90.91;101177.78;6088356;28;20033;-66
2023/06/08 00:07:08;;;;;;;10.23;4.55;;;;;;;14.48;91.30;101175.94;6075150;28;20091;-66
2023/06/08 00:10:04;;;;;;;10.68;5.15;;;;;;;14.56;91.49;101193.81;6075018;28;20021;-66
2023/06/08 00:13:00;;;;;;;7.97;4.22;;;;;;;14.61;91.57;101186.16;6074881;28;20480;-66
2023/06/08 00:15:55;;;;;;;9.05;4.78;;;;;;;14.59;91.40;101183.66;6074353;28;20025;-65
2023/06/08 00:18:56;;;;;;;11.07;5.23;;;;;;;14.60;91.30;101179.97;6074792;28;20033;-66
2023/06/08 00:21:52;;;;;;;10.63;5.35;;;;;;;14.68;90.37;101169.31;6074609;28;20655;-66
2023/06/08 00:24:47;;;;;;;10.38;4.50;;;;;;;14.71;90.80;101173.50;6073890;28;20026;-66
2023/06/08 00:27:43;;;;;;;11.57;4.63;;;;;;;14.80;89.94;101180.56;6074636;28;20043;-65
2023/06/08 00:30:38;;;;;;;12.87;5.87;;;;;;;14.91;89.48;101193.59;6074276;28;20456;-66
2023/06/08 00:33:36;;;;;;;8.97;4.63;;;;;;;14.98;89.92;101193.78;6073813;28;20527;-66
2023/06/08 00:36:31;;;;;;;9.35;4.82;;;;;;;14.96;88.97;101175.25;6074105;28;20156;-65
2023/06/08 00:39:27;;;;;;;11.00;4.50;;;;;;;14.86;90.57;101159.38;6074202;28;20457;-66
2023/06/08 00:42:22;;;;;;;8.90;4.40;;;;;;;14.91;91.32;101158.88;6074471;28;20037;-66
2023/06/08 00:45:17;;;;;;;7.23;4.47;;;;;;;15.04;91.81;101164.59;6073775;28;20025;-66
2023/06/08 00:48:14;;;;;;;10.77;4.63;;;;;;;15.08;93.26;101167.78;6073799;28;20025;-65
2023/06/08 00:51:11;;;;;;;12.05;5.15;;;;;;;14.97;93.54;101160.06;6073978;28;20025;-66
2023/06/08 00:54:09;;;;;;;13.18;4.97;;;;;;;14.91;93.68;101161.56;6072403;28;20033;-66
2023/06/08 00:57:05;;;;;;;13.57;5.05;;;;;;;15.04;94.18;101167.25;6073741;28;20025;-66
2023/06/08 01:00:04;;;;;;;11.75;5.38;;;;;;;14.99;93.65;101169.59;6073551;28;20033;-66
2023/06/08 01:03:00;;;;;;;8.65;5.15;;;;;;;14.91;93.74;101177.59;6073991;28;20067;-66
2023/06/08 01:05:55;;;;;;;11.80;5.40;;;;;;;14.83;93.76;101164.22;6073102;28;20066;-66
2023/06/08 01:09:09;;;;;;;9.90;5.30;;;;;;;14.88;93.67;101172.56;6073649;28;20373;-66
2023/06/08 01:12:22;;;;;;;11.80;5.85;;;;;;;14.83;93.76;101148.19;6073599;28;20033;-66
2023/06/08 01:15:30;;;;;;;13.60;6.47;;;;;;;14.78;94.16;101145.19;6072375;28;20079;-66
2023/06/08 01:18:32;;;;;;;9.27;5.80;;;;;;;14.70;94.49;101142.47;6072403;28;20056;-65
2023/06/08 01:21:42;;;;;;;10.13;6.10;;;;;;;14.80;94.87;101164.53;6072385;28;20021;-66
2023/06/08 01:24:38;;;;;;;10.82;5.72;;;;;;;14.68;95.67;101152.47;6071701;28;20040;-66
2023/06/08 01:27:36;;;;;;;11.30;6.15;;;;;;;14.68;96.15;101152.47;6073225;28;20033;-66
2023/06/08 01:30:32;;;;;;;11.10;6.50;;;;;;;14.65;96.11;101150.94;6073457;28;20087;-66
2023/06/08 01:33:28;;;;;;;15.07;7.10;;;;;;;14.69;96.42;101154.16;6072059;28;20372;-66
2023/06/08 01:36:40;;;;;;;12.00;6.25;;;;;;;14.67;96.61;101161.50;6072119;28;20033;-66
2023/06/08 01:39:48;;;;;;;15.25;6.03;;;;;;;14.62;96.92;101155.81;6071863;28;20018;-65
2023/06/08 01:42:46;;;;;;;11.88;5.90;;;;;;;14.54;97.06;101145.91;6067108;28;20049;-65
2023/06/08 01:45:46;;;;;;;11.88;5.80;;;;;;;14.48;97.44;101132.38;6071449;28;20036;-66
2023/06/08 01:48:43;;;;;;;10.98;5.85;;;;;;;14.49;97.45;101128.69;6073190;28;20522;-66
2023/06/08 01:51:38;;;;;;;14.40;6.03;;;;;;;14.61;97.25;101148.78;6074148;28;20049;-66
2023/06/08 01:54:34;;;;;;;9.80;5.50;;;;;;;14.49;96.86;101126.03;6074908;28;20044;-66
2023/06/08 01:57:29;;;;;;;10.30;5.27;;;;;;;14.46;96.65;101124.53;6073259;28;20034;-66
2023/06/08 02:00:25;;;;;;;11.97;6.23;;;;;;;14.37;96.84;101116.66;6074096;28;20025;-66
2023/06/08 02:03:21;;;;;;;16.85;5.63;;;;;;;14.42;97.33;101130.34;6072466;28;20380;-66
2023/06/08 02:06:16;;;;;;;10.83;5.00;;;;;;;14.38;97.57;101115.69;6076109;28;20040;-65
2023/06/08 02:09:12;;;;;;;10.77;4.88;;;;;;;14.42;96.58;101130.34;6098609;28;20252;-66
2023/06/08 02:12:07;;;;;;;10.97;5.27;;;;;;;14.45;95.90;101122.88;6080544;28;20464;-65
2023/06/08 02:15:03;;;;;;;9.23;5.50;;;;;;;14.45;95.28;101132.69;6082789;28;20347;-66
2023/06/08 02:17:59;;;;;;;11.82;4.75;;;;;;;14.42;96.32;101127.69;6077596;28;20032;-66
2023/06/08 02:20:55;;;;;;;8.02;4.70;;;;;;;14.28;95.96;101115.75;6077243;28;20033;-66
2023/06/08 02:23:50;;;;;;;11.27;4.82;;;;;;;14.27;95.81;101125.59;6076649;28;20037;-66
2023/06/08 02:26:45;;;;;;;9.87;4.87;;;;;;;14.14;96.22;101113.69;6077268;28;20480;-66
2023/06/08 02:29:41;;;;;;;7.83;4.57;;;;;;;14.16;94.99;101125.84;6076944;28;20113;-66
2023/06/08 02:32:41;;;;;;;9.88;4.60;;;;;;;14.25;94.11;101132.06;6077634;28;20037;-66
2023/06/08 02:35:37;;;;;;;;;;;;;;;14.26;93.94;101134.59;6076982;28;20038;-66
2023/06/08 02:38:32;;;;;;;11.98;4.68;;;;;;;14.21;93.68;101122.72;6076736;28;19916;-66
2023/06/08 02:41:28;;;;;;;10.37;4.73;;;;;;;14.20;92.36;101118.38;6076839;28;20025;-66
2023/06/08 02:44:23;;;;;;;9.63;4.67;;;;;;;14.17;91.50;101116.88;6076369;28;20037;-66
2023/06/08 02:47:18;;;;;;;12.87;4.57;;;;;;;14.27;90.67;101125.59;6076621;28;20080;-66
2023/06/08 02:50:14;;;;;;;9.82;4.50;;;;;;;14.24;90.45;101120.56;6076919;28;20079;-65
2023/06/08 02:53:09;;;;;;;11.47;5.07;;;;;;;14.15;90.39;101124.22;6076459;28;20029;-66
2023/06/08 02:56:05;;;;;;;10.15;5.03;;;;;;;14.12;90.35;101119.19;6076122;28;20045;-65
2023/06/08 02:59:02;;;;;;;10.80;4.63;;;;;;;14.09;90.69;101127.50;6079762;28;20045;-65
2023/06/08 03:01:57;;;;;;;11.75;5.25;;;;;;;14.15;91.62;101136.69;6081093;28;20037;-65
2023/06/08 03:04:58;;;;;;;12.75;5.20;;;;;;;14.04;90.96;101131.63;6076106;28;20044;-66
2023/06/08 03:07:53;;;;;;;10.65;4.97;;;;;;;14.11;90.92;101130.84;6076348;28;20380;-65
2023/06/08 03:10:49;;;;;;;12.07;5.27;;;;;;;14.10;90.39;101134.53;6076326;28;20029;-66
2023/06/08 03:13:45;;;;;;;11.90;4.67;;;;;;;14.10;90.44;101144.34;6075679;28;20041;-66
2023/06/08 03:16:41;;;;;;;11.95;5.05;;;;;;;14.04;90.87;101145.81;6075346;28;20033;-66
2023/06/08 03:19:37;;;;;;;11.68;5.07;;;;;;;14.02;91.11;101145.09;6076200;28;20026;-65
2023/06/08 03:22:34;;;;;;;10.85;5.40;;;;;;;14.12;91.50;101145.84;6076593;28;20392;-65
2023/06/08 03:25:30;;;;;;;9.15;4.45;;;;;;;14.17;90.86;101140.03;6075396;28;20044;-65
2023/06/08 03:28:25;;;;;;;12.13;4.70;;;;;;;14.14;91.11;101137.69;6076020;28;20025;-65
2023/06/08 03:31:20;;;;;;;10.53;5.37;;;;;;;14.07;91.85;101132.16;6075958;28;20039;-65
2023/06/08 03:34:17;;;;;;;11.97;4.90;;;;;;;14.06;91.61;101132.31;6075539;28;20059;-66
2023/06/08 03:37:12;;;;;;;10.77;5.05;;;;;;;14.10;92.41;101149.69;6075447;28;20531;-65
2023/06/08 03:40:08;;;;;;;13.27;5.27;;;;;;;13.98;93.44;101129.59;6075529;28;20040;-65
2023/06/08 03:43:03;;;;;;;14.13;5.22;;;;;;;13.97;94.36;101139.41;6075278;28;20025;-65
2023/06/08 03:45:58;;;;;;;11.83;6.00;;;;;;;13.99;94.38;101142.78;6075297;28;20042;-65
2023/06/08 03:48:54;;;;;;;11.97;5.17;;;;;;;13.92;94.17;101132.88;6075261;28;20038;-65
2023/06/08 03:51:50;;;;;;;12.13;5.15;;;;;;;13.88;94.73;101142.19;6082117;28;20492;-65
2023/06/08 03:54:46;;;;;;;9.57;5.05;;;;;;;13.84;95.22;101130.16;6074970;28;20450;-65
2023/06/08 03:57:41;;;;;;;12.50;5.32;;;;;;;13.67;95.29;101111.41;6075121;28;20076;-65
2023/06/08 04:00:36;;;;;;;11.43;5.37;;;;;;;13.66;96.25;101104.41;6091289;28;20032;-65
2023/06/08 04:03:32;;;;;;;13.13;5.73;;;;;;;13.74;96.87;101119.63;6082091;28;20379;-66
2023/06/08 04:06:33;;;;;;;13.13;6.33;;;;;;;13.79;97.75;101135.97;6075460;28;20025;-65
2023/06/08 04:09:28;;;;;;;14.60;5.30;;;;;;;13.70;98.14;101132.41;6073797;28;20056;-67
2023/06/08 04:12:24;;;;;;;12.02;5.22;;;;;;;13.62;100.00;101137.69;6074437;28;20029;-64
2023/06/08 04:15:19;;;;;;;12.73;5.63;;;;;;;13.81;100.00;101160.63;6074227;28;20037;-64
2023/06/08 04:18:15;;;;;;;17.27;6.07;;;;;;;13.76;99.60;101151.44;6074659;28;20117;-65
2023/06/08 04:21:11;;;;;;;16.00;6.07;;;;;;;13.76;100.00;101156.78;6075267;28;20295;-67
2023/06/08 04:24:07;;;;;;;13.00;5.82;;;;;;;13.71;100.00;101159.91;6074004;28;20151;-64
2023/06/08 04:27:02;;;;;;;10.80;4.72;;;;;;;13.76;100.00;101144.28;6076416;28;20030;-63
2023/06/08 04:29:58;;;;;;;15.40;5.93;;;;;;;13.68;100.00;101149.56;6076224;28;20033;-64
2023/06/08 04:32:55;;;;;;;13.65;5.20;;;;;;;13.62;100.00;101155.50;6074418;28;20096;-64
2023/06/08 04:35:50;;;;;;;14.63;6.30;;;;;;;13.64;100.00;101161.53;6074281;28;20034;-64
2023/06/08 04:38:46;;;;;;;10.25;5.28;;;;;;;13.79;100.00;101167.13;6076119;28;20025;-64
2023/06/08 04:41:44;;;;;;;11.35;5.68;;;;;;;13.72;100.00;101169.59;6098830;28;20102;-64
2023/06/08 04:44:39;;;;;;;15.02;5.93;;;;;;;13.72;100.00;101161.59;6080492;28;20484;-66
2023/06/08 04:47:35;;;;;;;16.80;5.83;;;;;;;13.70;100.00;101155.56;6073901;28;20033;-64
2023/06/08 04:50:33;;;;;;;13.10;5.75;;;;;;;13.60;100.00;101136.16;6074618;28;20028;-64
2023/06/08 04:53:30;;;;;;;14.32;6.60;;;;;;;13.65;100.00;101156.03;6073547;28;20044;-64
2023/06/08 04:56:29;;;;;;;16.33;6.07;;;;;;;13.76;100.00;101146.94;6082165;28;20025;-65
2023/06/08 04:59:25;;;;;;;12.07;5.80;;;;;;;13.68;100.00;101154.88;6089428;28;20045;-64
2023/06/08 05:02:20;;;;;;;15.32;7.13;;;;;;;13.78;100.00;101162.81;6073549;28;20052;-64
2023/06/08 05:05:16;;;;;;;12.00;6.50;;;;;;;13.90;100.00;101164.22;6073625;28;20025;-65
2023/06/08 05:08:11;;;;;;;13.33;5.43;;;;;;;13.86;100.00;101155.66;6073937;28;20029;-65
2023/06/08 05:11:06;;;;;;;15.97;6.43;;;;;;;13.92;100.00;101165.72;6073949;28;20271;-65
2023/06/08 05:14:02;;;;;;;15.07;6.07;;;;;;;13.97;100.00;101155.41;6070899;28;20025;-65
2023/06/08 05:16:57;;;;;;;12.50;6.73;;;;;;;14.10;100.00;101161.19;6070430;28;20391;-65
2023/06/08 05:19:52;;;;;;;15.47;6.10;;;;;;;14.06;99.94;101151.81;6073772;28;20384;-65
2023/06/08 05:22:48;;;;;;;13.70;5.77;;;;;;;14.14;99.97;101161.69;6073661;28;20108;-65
2023/06/08 05:25:43;;;;;;;19.03;6.10;;;;;;;14.23;100.00;101161.59;6072997;28;20032;-65
2023/06/08 05:28:38;;;;;;;15.53;6.37;;;;;;;14.17;99.27;101145.38;6073162;28;20065;-64
2023/06/08 05:31:34;;;;;;;15.37;6.30;;;;;;;14.30;99.81;101143.09;6071795;28;20033;-65
2023/06/08 05:34:29;;;;;;;18.50;6.05;;;;;;;14.50;99.34;101151.72;6077873;28;20094;-65
2023/06/08 05:37:25;;;;;;;14.67;6.23;;;;;;;14.55;98.19;101157.41;6073990;28;20029;-67
2023/06/08 05:40:20;;;;;;;14.85;6.32;;;;;;;14.58;97.45;101146.44;6072596;28;20021;-67
2023/06/08 05:43:15;;;;;;;15.93;6.40;;;;;;;14.52;96.32;101134.56;6083942;28;20345;-67
2023/06/08 05:46:11;;;;;;;16.60;7.27;;;;;;;14.69;96.45;101156.81;6074678;28;20075;-66
2023/06/08 05:49:06;;;;;;;14.20;6.03;;;;;;;14.88;97.33;101145.88;6083345;28;20035;-66
2023/06/08 05:52:01;;;;;;;19.53;6.23;;;;;;;14.92;95.83;101152.53;6085375;28;20107;-66
2023/06/08 05:54:57;;;;;;;12.53;6.40;;;;;;;14.97;94.71;101165.41;6078004;28;20465;-66
2023/06/08 05:57:53;;;;;;;18.10;6.10;;;;;;;15.08;94.25;101163.28;6072201;28;20038;-66
2023/06/08 06:00:48;;;;;;;16.13;6.07;;;;;;;14.89;93.21;101137.66;6072569;28;20468;-67
2023/06/08 06:03:43;;;;;;;14.13;6.03;;;;;;;15.12;93.03;101156.59;6071783;28;20311;-67
2023/06/08 06:06:39;;;;;;;13.83;6.07;;;;;;;15.16;92.61;101136.56;6072117;28;20025;-67
2023/06/08 06:09:34;;;;;;;17.07;6.97;;;;;;;15.24;92.46;101149.94;6072597;28;20091;-67
2023/06/08 06:12:30;;;;;;;13.60;6.80;;;;;;;15.36;93.06;101151.28;6070985;28;20292;-67
2023/06/08 06:15:25;;;;;;;16.92;5.95;;;;;;;15.54;90.91;101159.19;6069550;28;20480;-67
2023/06/08 06:18:20;;;;;;;17.33;6.50;;;;;;;15.68;90.31;101171.03;6076952;28;20021;-67
2023/06/08 06:21:16;;;;;;;16.73;6.80;;;;;;;15.66;89.73;101156.97;6072094;28;20033;-67
2023/06/08 06:24:12;;;;;;;15.02;6.88;;;;;;;15.92;87.96;101147.78;6071418;28;20055;-67
2023/06/08 06:27:07;;;;;;;15.95;7.55;;;;;;;16.34;86.07;101152.84;6071839;28;20041;-65
2023/06/08 06:30:03;;;;;;;13.13;5.90;;;;;;;16.59;85.11;101151.78;6072155;28;20045;-66
2023/06/08 06:32:59;;;;;;;15.85;6.53;;;;;;;17.05;82.63;101147.34;6071909;28;20536;-67
2023/06/08 06:35:54;;;;;;;18.77;6.50;;;;;;;16.98;81.68;101150.91;6071188;28;20047;-65
2023/06/08 06:38:49;;;;;;;15.47;6.87;;;;;;;18.09;78.31;101146.66;6072250;28;20328;-66
2023/06/08 06:41:45;;;;;;;15.13;5.97;;;;;;;18.89;75.99;101158.28;6072130;28;20037;-65
2023/06/08 06:44:40;;;;;;;14.30;7.22;;;;;;;19.58;70.38;101146.84;6071110;28;20664;-66
2023/06/08 06:47:35;;;;;;;14.77;6.50;;;;;;;19.86;69.96;101144.16;6071998;28;20040;-66
2023/06/08 06:50:31;;;;;;;16.00;7.13;;;;;;;20.13;68.48;101162.19;6071914;28;20049;-66
2023/06/08 06:53:26;;;;;;;13.63;6.60;;;;;;;19.82;66.63;101153.66;6074606;28;20025;-66
2023/06/08 06:56:21;;;;;;;15.07;7.07;;;;;;;19.15;69.58;101160.44;6076300;28;20095;-66
2023/06/08 06:59:20;;;;;;;12.35;6.78;;;;;;;19.03;70.58;101150.19;6078311;28;20373;-65
2023/06/08 07:02:15;;;;;;;14.68;7.47;;;;;;;19.55;67.83;101157.16;6078258;28;20457;-66
2023/06/08 07:05:11;;;;;;;15.57;7.43;;;;;;;19.70;67.63;101160.59;6074406;28;20029;-66
2023/06/08 07:08:06;;;;;;;13.25;6.28;;;;;;;19.06;70.03;101158.88;6076532;28;20747;-66
2023/06/08 07:11:01;;;;;;;12.60;6.60;;;;;;;19.88;67.67;101169.03;6075717;28;20037;-65
2023/06/08 07:13:57;;;;;;;14.00;6.45;;;;;;;19.90;67.45;101150.81;6075049;28;20025;-65
2023/06/08 07:16:52;;;;;;;12.17;7.00;;;;;;;19.38;68.86;101177.25;6086295;28;20068;-65
2023/06/08 07:19:48;;;;;;;14.10;6.20;;;;;;;19.24;70.77;101175.44;6074929;28;20946;-66
2023/06/08 07:22:43;;;;;;;14.80;6.35;;;;;;;19.42;69.49;101178.56;6075601;28;20021;-65
2023/06/08 07:25:39;;;;;;;13.57;7.03;;;;;;;19.02;71.61;101167.31;6074493;28;20385;-66
2023/06/08 07:28:34;;;;;;;14.10;6.18;;;;;;;18.91;72.96;101175.91;6075075;28;20025;-66
2023/06/08 07:31:30;;;;;;;15.87;8.00;;;;;;;18.33;74.75;101160.66;6075266;28;20033;-66
2023/06/08 07:34:26;;;;;;;16.88;7.53;;;;;;;18.41;76.62;101162.41;6074682;28;20036;-66
2023/06/08 07:37:21;;;;;;;17.58;7.30;;;;;;;18.52;75.61;101158.44;6075364;28;20036;-66
2023/06/08 07:40:19;;;;;;;14.67;7.03;;;;;;;18.50;76.38;101161.31;6075307;28;20496;-66
2023/06/08 07:43:14;;;;;;;13.75;7.35;;;;;;;18.75;76.00;101159.16;6074791;28;20049;-66
2023/06/08 07:46:11;;;;;;;16.87;6.73;;;;;;;19.15;74.10;101147.00;6078259;28;20036;-66
2023/06/08 07:49:06;;;;;;;15.65;6.35;;;;;;;19.00;74.51;101174.75;6074983;28;20045;-67
2023/06/08 07:52:01;;;;;;;15.87;6.73;;;;;;;19.45;72.99;101162.88;6075504;28;20032;-66
2023/06/08 07:54:56;;;;;;;12.97;6.60;;;;;;;19.73;72.56;101170.94;6073783;28;20021;-66
2023/06/08 07:57:52;;;;;;;13.10;6.90;;;;;;;20.01;69.66;101177.19;6074935;28;20030;-66
2023/06/08 08:00:47;;;;;;;15.57;7.63;;;;;;;20.17;69.68;101162.59;6074377;28;20465;-66
2023/06/08 08:03:42;;;;;;;18.07;6.77;;;;;;;20.22;69.46;101170.91;6073308;28;20052;-66
2023/06/08 08:06:38;;;;;;;16.27;6.80;;;;;;;20.67;67.68;101169.53;6074882;28;20033;-66
2023/06/08 08:09:33;;;;;;;12.20;7.00;;;;;;;21.07;66.54;101167.84;6073194;28;20500;-66
2023/06/08 08:12:28;;;;;;;18.33;7.20;;;;;;;21.41;64.30;101169.59;6074133;28;20034;-67
2023/06/08 08:15:24;;;;;;;20.47;7.83;;;;;;;21.23;64.17;101168.31;6073628;28;20025;-66
2023/06/08 08:18:19;;;;;;;12.10;6.80;;;;;;;21.32;64.56;101172.47;6087067;28;20317;-66
2023/06/08 08:21:14;;;;;;;16.80;6.93;;;;;;;21.79;63.17;101162.56;6074837;28;20029;-66
2023/06/08 08:24:10;;;;;;;10.90;6.63;;;;;;;23.02;59.61;101165.16;6073508;28;20117;-66
2023/06/08 08:27:06;;;;;;;11.47;6.10;;;;;;;22.83;60.03;101152.59;6072992;28;20112;-67
2023/06/08 08:30:01;;;;;;;13.80;6.88;;;;;;;22.68;60.19;101149.31;6074164;28;20410;-67
2023/06/08 08:32:57;;;;;;;14.35;6.70;;;;;;;23.15;58.69;101157.00;6071200;28;20037;-66
2023/06/08 08:35:52;;;;;;;15.13;7.45;;;;;;;23.35;58.44;101163.09;6069909;28;20025;-67
2023/06/08 08:38:47;;;;;;;12.38;7.50;;;;;;;23.53;56.82;101160.53;6082300;28;20547;-67
2023/06/08 08:41:46;;;;;;;11.97;6.80;;;;;;;23.45;56.63;101152.69;6071462;28;20029;-66
2023/06/08 08:44:42;;;;;;;15.63;7.13;;;;;;;23.33;56.64;101148.13;6069461;28;20028;-66
2023/06/08 08:47:37;;;;;;;14.07;7.25;;;;;;;23.28;55.80;101156.91;6071302;28;20041;-67
2023/06/08 08:50:34;;;;;;;16.00;7.50;;;;;;;23.28;57.23;101161.50;6072465;28;20021;-67
2023/06/08 08:53:30;;;;;;;12.52;6.65;;;;;;;23.53;55.84;101147.00;6071751;28;20576;-67
2023/06/08 08:56:26;;;;;;;11.52;6.40;;;;;;;24.46;55.09;101166.75;6073326;28;20040;-67
2023/06/08 08:59:23;;;;;;;16.52;7.30;;;;;;;24.25;54.38;101159.06;6073263;28;20033;-67
2023/06/08 09:02:18;;;;;;;15.60;7.57;;;;;;;24.22;53.26;101145.94;6075798;28;20029;-67
2023/06/08 09:05:13;;;;;;;11.57;7.30;;;;;;;24.51;52.54;101153.34;6072840;28;20057;-68
2023/06/08 09:08:09;;;;;;;13.73;7.63;;;;;;;24.16;54.20;101144.97;6072280;28;20113;-68
2023/06/08 09:11:08;;;;;;;14.20;7.95;;;;;;;23.87;55.72;101142.94;6073027;28;20033;-67
2023/06/08 09:14:08;;;;;;;13.57;7.78;;;;;;;23.79;55.76;101153.22;6071687;28;20029;-67
2023/06/08 09:17:07;;;;;;;;;;;;;;;23.92;56.69;101153.09;6077686;28;20029;-67
2023/06/08 09:20:02;;;;;;;14.25;7.53;;;;;;;23.96;54.16;101140.78;6071808;28;20348;-67
2023/06/08 09:22:58;;;;;;;15.23;7.40;;;;;;;23.95;54.96;101155.34;6074295;28;20033;-67
2023/06/08 09:25:54;;;;;;;18.17;7.65;;;;;;;23.80;55.33;101141.34;6072678;28;20120;-67
2023/06/08 09:28:53;;;;;;;17.30;7.57;;;;;;;23.83;56.05;101154.44;6073128;28;20034;-68
2023/06/08 09:31:49;;;;;;;13.85;7.70;;;;;;;23.62;56.02;101153.78;6075968;28;20109;-67
2023/06/08 09:35:01;;;;;;;12.02;6.53;;;;;;;23.70;55.19;101137.25;6077031;28;20030;-67
2023/06/08 09:38:18;;;;;;;12.13;7.32;;;;;;;24.00;56.40;101139.25;6070786;28;20056;-68
2023/06/08 09:41:19;;;;;;;12.57;7.20;;;;;;;23.91;56.00;101125.19;6071644;28;20041;-67
2023/06/08 09:44:17;;;;;;;14.05;7.25;;;;;;;24.10;55.09;101137.75;6070464;28;20025;-67
2023/06/08 09:47:21;;;;;;;14.65;7.45;;;;;;;24.58;53.42;101143.25;6072088;28;20033;-67
2023/06/08 09:50:18;;;;;;;10.77;7.82;;;;;;;24.77;52.37;101125.06;6062082;28;20369;-67
2023/06/08 09:53:14;;;;;;;13.75;6.80;;;;;;;25.24;51.37;101123.38;6072529;28;20030;-67
2023/06/08 09:56:09;;;;;;;12.43;6.87;;;;;;;25.33;51.06;101130.13;6069992;28;20048;-67
2023/06/08 09:59:10;;;;;;;11.47;7.07;;;;;;;25.60;49.67;101141.44;6072217;28;20268;-68
2023/06/08 10:02:29;;;;;;;13.32;6.85;;;;;;;25.35;48.76;101122.59;6073946;28;20786;-68
2023/06/08 10:05:30;;;;;;;15.07;6.28;;;;;;;25.24;50.13;101121.50;6063689;28;20033;-68
2023/06/08 10:08:26;;;;;;;8.63;6.18;;;;;;;24.93;50.42;101131.75;6071185;28;20028;-67
2023/06/08 10:11:22;;;;;;;10.23;6.10;;;;;;;24.97;50.62;101112.09;6071224;28;20108;-68
2023/06/08 10:14:18;;;;;;;11.52;6.65;;;;;;;24.91;51.76;101117.59;6069453;28;20037;-68
2023/06/08 10:17:15;;;;;;;9.88;7.00;;;;;;;24.97;49.67;101127.53;6071502;28;20033;-67
2023/06/08 10:20:12;;;;;;;13.15;6.70;;;;;;;24.78;51.36;101100.44;6072123;28;20033;-67
2023/06/08 10:23:07;;;;;;;10.90;6.70;;;;;;;24.51;51.33;101126.25;6071364;28;20052;-68
2023/06/08 10:26:04;;;;;;;12.10;6.82;;;;;;;24.55;53.05;101116.56;6071945;28;20029;-68
2023/06/08 10:29:07;;;;;;;12.38;6.90;;;;;;;24.28;52.38;101110.66;6074493;28;20068;-68
2023/06/08 10:32:10;;;;;;;11.02;7.22;;;;;;;24.30;53.14;101096.84;6076891;28;20021;-68
2023/06/08 10:35:07;;;;;;;9.85;6.60;;;;;;;24.22;53.46;101099.88;6075466;28;20083;-68
2023/06/08 10:38:13;;;;;;;9.48;6.20;;;;;;;24.32;52.97;101119.16;6075741;28;20033;-68
2023/06/08 10:41:09;;;;;;;10.30;5.78;;;;;;;24.14;52.69;101102.88;6076163;28;20119;-68
2023/06/08 10:44:04;;;;;;;9.20;5.97;;;;;;;24.35;52.43;101110.56;6074328;28;20460;-67
2023/06/08 10:47:12;;;;;;;11.80;6.03;;;;;;;24.54;51.89;101114.09;6083744;28;20040;-68
2023/06/08 10:50:08;;;;;;;10.57;5.93;;;;;;;24.24;52.37;101103.19;6079442;28;20032;-68
2023/06/08 10:53:04;;;;;;;11.30;6.30;;;;;;;24.58;51.56;101099.00;6081193;28;20036;-68
2023/06/08 10:55:59;;;;;;;9.43;5.75;;;;;;;24.97;50.67;101094.97;6075328;28;20029;-68
2023/06/08 10:58:55;;;;;;;11.55;6.43;;;;;;;24.56;51.83;101093.84;6082716;28;20039;-68
2023/06/08 11:01:50;;;;;;;12.32;7.03;;;;;;;24.66;51.85;101090.56;6075689;28;20030;-68
2023/06/08 11:04:49;;;;;;;10.57;6.40;;;;;;;24.75;52.61;101087.31;6076030;28;20056;-68
2023/06/08 11:07:45;;;;;;;12.43;6.47;;;;;;;24.95;51.51;101089.75;6076749;28;20057;-68
2023/06/08 11:10:40;;;;;;;14.20;6.47;;;;;;;25.33;52.41;101092.09;6074585;28;20029;-68
2023/06/08 11:13:35;;;;;;;9.40;6.22;;;;;;;25.97;48.97;101073.03;6078813;28;20079;-68
2023/06/08 11:16:31;;;;;;;11.87;7.43;;;;;;;26.25;47.21;101085.09;6074393;28;20380;-68
2023/06/08 11:19:28;;;;;;;11.33;6.20;;;;;;;27.59;45.19;101073.44;6071672;28;20033;-68
2023/06/08 11:22:24;;;;;;;10.00;6.05;;;;;;;27.92;45.00;101070.66;6074495;28;20025;-68
2023/06/08 11:25:20;;;;;;;10.60;5.97;;;;;;;27.27;44.71;101078.63;6073144;28;20107;-68
2023/06/08 11:28:15;;;;;;;8.95;6.40;;;;;;;27.58;44.15;101063.63;6074050;28;20435;-68
2023/06/08 11:31:11;;;;;;;9.50;6.20;;;;;;;27.13;43.85;101056.31;6075712;28;20040;-68
2023/06/08 11:34:07;;;;;;;9.40;5.63;;;;;;;27.35;43.81;101061.03;6074478;28;20751;-68
2023/06/08 11:37:03;;;;;;;9.18;5.65;;;;;;;27.08;44.61;101069.03;6072612;28;20037;-68
2023/06/08 11:39:59;;;;;;;10.30;5.82;;;;;;;27.18;44.24;101061.84;6072555;28;20099;-68
2023/06/08 11:42:55;;;;;;;10.90;6.45;;;;;;;27.93;43.07;101055.13;6073282;28;20110;-68
2023/06/08 11:45:52;;;;;;;11.85;6.05;;;;;;;28.32;43.47;101040.38;6073047;28;20025;-68
2023/06/08 11:48:47;;;;;;;10.40;6.22;;;;;;;28.49;42.37;101053.97;6074059;28;20368;-68
2023/06/08 11:51:46;;;;;;;9.97;5.93;;;;;;;28.90;41.62;101045.97;6074654;28;20044;-68
2023/06/08 11:54:41;;;;;;;8.48;5.35;;;;;;;28.40;41.45;101039.13;6074365;28;20116;-68
2023/06/08 11:57:42;;;;;;;9.80;4.97;;;;;;;28.29;41.81;101044.44;6079854;28;20029;-68
2023/06/08 12:00:39;;;;;;;9.90;5.72;;;;;;;28.27;42.70;101032.97;6079032;28;20407;-68
2023/06/08 12:03:52;;;;;;;9.70;5.90;;;;;;;27.75;41.75;101042.59;6077322;28;20542;-68
2023/06/08 12:06:47;;;;;;;8.73;5.60;;;;;;;27.59;42.54;101027.09;6076278;28;20032;-68
2023/06/08 12:09:49;;;;;;;8.80;5.73;;;;;;;27.93;44.24;101031.41;6074284;28;20064;-68
2023/06/08 12:12:47;;;;;;;10.73;5.47;;;;;;;27.78;42.56;101025.75;6078360;28;20268;-68
2023/06/08 12:15:45;;;;;;;9.85;5.45;;;;;;;27.71;42.97;101016.94;6073336;28;20029;-68
2023/06/08 12:18:42;;;;;;;8.52;4.97;;;;;;;27.86;41.61;101019.06;6074300;28;20037;-68
2023/06/08 12:21:40;;;;;;;9.95;5.22;;;;;;;28.11;42.09;101017.50;6073501;28;20026;-68
2023/06/08 12:24:37;;;;;;;8.70;5.22;;;;;;;28.27;42.63;101002.97;6073919;28;20037;-68
2023/06/08 12:27:37;;;;;;;9.63;5.38;;;;;;;28.26;41.13;101012.25;6072337;28;20044;-68
2023/06/08 12:30:32;;;;;;;8.75;5.05;;;;;;;28.12;41.72;100993.78;6074669;28;20021;-68
2023/06/08 12:33:28;;;;;;;9.82;5.93;;;;;;;28.40;40.83;101007.22;6073396;28;20083;-67
2023/06/08 12:36:23;;;;;;;7.45;4.70;;;;;;;28.06;40.87;101011.97;6073290;28;20083;-68
2023/06/08 12:39:18;;;;;;;7.20;5.33;;;;;;;27.68;41.52;100992.91;6072469;28;20044;-68
2023/06/08 12:42:14;;;;;;;9.53;4.93;;;;;;;28.27;41.20;100996.66;6073469;28;20033;-68
2023/06/08 12:45:10;;;;;;;7.38;5.00;;;;;;;29.13;40.19;100986.63;6073085;28;21646;-68
2023/06/08 12:48:05;;;;;;;6.38;4.70;;;;;;;29.29;40.28;100997.44;6072137;28;20445;-68
2023/06/08 12:51:00;;;;;;;7.22;5.07;;;;;;;28.71;37.55;100991.97;6073532;28;20026;-68
2023/06/08 12:53:56;;;;;;;8.87;4.90;;;;;;;28.85;38.83;100982.28;6072828;28;20076;-69
2023/06/08 12:56:51;;;;;;;10.07;6.13;;;;;;;28.72;38.87;100980.81;6072984;28;20418;-68
2023/06/08 12:59:46;;;;;;;8.70;5.10;;;;;;;29.00;39.57;100968.75;6073480;28;20033;-68
2023/06/08 13:02:41;;;;;;;7.90;4.90;;;;;;;29.31;36.46;100964.38;6079586;28;20124;-68
2023/06/08 13:05:37;;;;;;;8.47;5.73;;;;;;;29.48;36.21;100963.13;6076396;28;20365;-68
2023/06/08 13:08:32;;;;;;;16.63;5.27;;;;;;;29.70;35.17;100973.06;6073548;28;20025;-68
2023/06/08 13:11:27;;;;;;;7.33;4.80;;;;;;;29.54;34.15;100965.88;6072946;28;20037;-68
2023/06/08 13:14:23;;;;;;;6.40;5.27;;;;;;;29.60;34.59;100962.09;6073026;28;20384;-68
2023/06/08 13:17:18;;;;;;;10.50;5.13;;;;;;;29.71;37.20;100948.19;6072617;28;20029;-68
2023/06/08 13:20:14;;;;;;;9.80;5.00;;;;;;;29.70;36.04;100943.00;6071098;28;20040;-68
2023/06/08 13:23:09;;;;;;;7.03;4.90;;;;;;;29.58;36.54;100953.31;6072776;28;20034;-68
2023/06/08 13:26:05;;;;;;;6.63;5.63;;;;;;;28.66;37.03;100946.34;6072777;28;20372;-68
2023/06/08 13:29:00;;;;;;;9.70;5.30;;;;;;;28.81;37.83;100937.44;6073007;28;20030;-68
2023/06/08 13:31:56;;;;;;;9.00;5.03;;;;;;;28.72;38.12;100942.59;6071919;28;20280;-68
2023/06/08 13:34:51;;;;;;;6.67;4.57;;;;;;;28.71;35.86;100945.56;6071703;28;20045;-68